createdAt,value
2019-02-05T00:00:28.409Z,1028.97
2019-02-05T00:01:28.064Z,1029.01
2019-02-05T00:02:28.159Z,1029.01
2019-02-05T00:03:28.170Z,1028.94
2019-02-05T00:04:28.177Z,1029.02
2019-02-05T00:05:27.929Z,1029.03
2019-02-05T00:06:27.990Z,1029.02
2019-02-05T00:07:28.022Z,1029.03
2019-02-05T00:08:28.506Z,1029.07
2019-02-05T00:09:28.020Z,1029.08
2019-02-05T00:10:28.005Z,1029.07
2019-02-05T00:11:27.926Z,1029.06
2019-02-05T00:12:27.978Z,1029.02
2019-02-05T00:13:27.968Z,1029.04
2019-02-05T00:14:27.920Z,1029.06
2019-02-05T00:15:27.923Z,1029.07
2019-02-05T00:16:28.414Z,1029.07
2019-02-05T00:17:27.958Z,1029.06
2019-02-05T00:18:27.944Z,1029.06
2019-02-05T00:19:27.936Z,1029.04
2019-02-05T00:20:28.020Z,1029
2019-02-05T00:21:27.962Z,1029
2019-02-05T00:22:28.591Z,1028.98
2019-02-05T00:23:28.201Z,1028.99
2019-02-05T00:24:27.931Z,1029.03
2019-02-05T00:25:27.961Z,1029.02
2019-02-05T00:26:27.950Z,1029.01
2019-02-05T00:27:28.086Z,1029.02
2019-02-05T00:28:28.023Z,1029.04
2019-02-05T00:29:28.143Z,1029.02
2019-02-05T00:30:28.029Z,1029.04
2019-02-05T00:31:28.196Z,1029.05
2019-02-05T00:32:28.153Z,1029.01
2019-02-05T00:33:28.169Z,1028.98
2019-02-05T00:34:27.977Z,1028.91
2019-02-05T00:35:27.846Z,1028.9
2019-02-05T00:36:27.968Z,1028.9
2019-02-05T00:37:28.397Z,1028.88
2019-02-05T00:38:28.333Z,1028.9
2019-02-05T00:39:28.873Z,1028.91
2019-02-05T00:40:27.955Z,1028.91
2019-02-05T00:41:29.674Z,1028.93
2019-02-05T00:42:28.319Z,1028.98
2019-02-05T00:43:27.928Z,1029.02
2019-02-05T00:44:27.923Z,1029.06
2019-02-05T00:45:27.816Z,1029.07
2019-02-05T00:46:27.840Z,1029.08
2019-02-05T00:47:28.126Z,1029.13
2019-02-05T00:48:27.828Z,1029.09
2019-02-05T00:49:28.163Z,1029.09
2019-02-05T00:50:27.895Z,1029.08
2019-02-05T00:51:28.201Z,1029.04
2019-02-05T00:52:28.192Z,1028.99
2019-02-05T00:53:29.322Z,1028.95
2019-02-05T00:54:27.938Z,1028.97
2019-02-05T00:55:28.157Z,1028.93
2019-02-05T00:56:28.111Z,1028.9
2019-02-05T00:57:27.933Z,1028.88
2019-02-05T00:58:28.069Z,1028.86
2019-02-05T00:59:27.929Z,1028.84
2019-02-05T01:00:28.142Z,1028.82
2019-02-05T01:01:28.257Z,1028.79
2019-02-05T01:02:27.933Z,1028.78
2019-02-05T01:03:29.729Z,1028.75
2019-02-05T01:04:28.060Z,1028.75
2019-02-05T01:05:28.066Z,1028.75
2019-02-05T01:06:27.843Z,1028.72
2019-02-05T01:07:28.082Z,1028.74
2019-02-05T01:08:27.824Z,1028.72
2019-02-05T01:09:27.803Z,1028.74
2019-02-05T01:10:28.290Z,1028.7
2019-02-05T01:11:28.001Z,1028.74
2019-02-05T01:12:28.222Z,1028.74
2019-02-05T01:13:28.734Z,1028.77
2019-02-05T01:14:28.018Z,1028.74
2019-02-05T01:15:28.041Z,1028.74
2019-02-05T01:16:27.812Z,1028.72
2019-02-05T01:17:27.840Z,1028.66
2019-02-05T01:18:28.105Z,1028.63
2019-02-05T01:19:27.928Z,1028.64
2019-02-05T01:20:27.808Z,1028.63
2019-02-05T01:21:28.066Z,1028.63
2019-02-05T01:22:28.078Z,1028.69
2019-02-05T01:23:27.800Z,1028.63
2019-02-05T01:24:27.739Z,1028.68
2019-02-05T01:25:27.979Z,1028.74
2019-02-05T01:26:31.331Z,1028.77
2019-02-05T01:27:28.214Z,1028.81
2019-02-05T01:28:28.023Z,1028.8
2019-02-05T01:29:29.142Z,1028.77
2019-02-05T01:30:27.748Z,1028.76
2019-02-05T01:31:28.235Z,1028.76
2019-02-05T01:32:28.142Z,1028.75
2019-02-05T01:33:27.735Z,1028.71
2019-02-05T01:34:28.311Z,1028.71
2019-02-05T01:35:27.909Z,1028.75
2019-02-05T01:36:28.002Z,1028.74
2019-02-05T01:37:27.726Z,1028.67
2019-02-05T01:38:27.876Z,1028.69
2019-02-05T01:39:27.912Z,1028.68
2019-02-05T01:40:29.328Z,1028.66
2019-02-05T01:41:27.938Z,1028.72
2019-02-05T01:42:28.223Z,1028.74
2019-02-05T01:43:28.119Z,1028.76
2019-02-05T01:44:27.757Z,1028.77
2019-02-05T01:45:27.733Z,1028.77
2019-02-05T01:46:28.246Z,1028.74
2019-02-05T01:47:27.828Z,1028.71
2019-02-05T01:48:27.711Z,1028.69
2019-02-05T01:49:28.439Z,1028.65
2019-02-05T01:50:27.791Z,1028.67
2019-02-05T01:51:27.967Z,1028.62
2019-02-05T01:52:28.274Z,1028.6
2019-02-05T01:53:27.747Z,1028.61
2019-02-05T01:54:27.709Z,1028.63
2019-02-05T01:55:27.704Z,1028.67
2019-02-05T01:56:27.700Z,1028.67
2019-02-05T01:57:28.156Z,1028.66
2019-02-05T01:58:27.703Z,1028.71
2019-02-05T01:59:27.700Z,1028.72
2019-02-05T02:00:30.992Z,1028.65
2019-02-05T02:01:27.682Z,1028.6
2019-02-05T02:02:27.876Z,1028.59
2019-02-05T02:03:27.919Z,1028.56
2019-02-05T02:04:28.155Z,1028.49
2019-02-05T02:05:28.209Z,1028.39
2019-02-05T02:06:28.067Z,1028.39
2019-02-05T02:07:27.960Z,1028.41
2019-02-05T02:08:28.170Z,1028.43
2019-02-05T02:09:27.735Z,1028.41
2019-02-05T02:10:27.986Z,1028.45
2019-02-05T02:11:27.891Z,1028.47
2019-02-05T02:12:27.947Z,1028.45
2019-02-05T02:13:27.946Z,1028.47
2019-02-05T02:14:27.817Z,1028.45
2019-02-05T02:15:27.944Z,1028.43
2019-02-05T02:16:27.679Z,1028.42
2019-02-05T02:17:27.775Z,1028.41
2019-02-05T02:18:28.037Z,1028.41
2019-02-05T02:19:28.026Z,1028.46
2019-02-05T02:20:28.513Z,1028.46
2019-02-05T02:21:27.898Z,1028.46
2019-02-05T02:22:27.714Z,1028.51
2019-02-05T02:23:27.747Z,1028.51
2019-02-05T02:24:27.976Z,1028.54
2019-02-05T02:25:28.107Z,1028.56
2019-02-05T02:26:27.988Z,1028.57
2019-02-05T02:27:27.771Z,1028.59
2019-02-05T02:28:28.360Z,1028.62
2019-02-05T02:29:27.910Z,1028.62
2019-02-05T02:30:27.735Z,1028.61
2019-02-05T02:31:27.778Z,1028.61
2019-02-05T02:32:27.651Z,1028.56
2019-02-05T02:33:27.738Z,1028.59
2019-02-05T02:34:28.048Z,1028.55
2019-02-05T02:35:28.073Z,1028.55
2019-02-05T02:36:27.950Z,1028.53
2019-02-05T02:37:28.059Z,1028.52
2019-02-05T02:38:27.683Z,1028.51
2019-02-05T02:39:28.380Z,1028.53
2019-02-05T02:40:27.865Z,1028.51
2019-02-05T02:41:27.708Z,1028.54
2019-02-05T02:42:27.787Z,1028.53
2019-02-05T02:43:27.950Z,1028.56
2019-02-05T02:44:27.761Z,1028.56
2019-02-05T02:45:28.036Z,1028.56
2019-02-05T02:46:27.660Z,1028.55
2019-02-05T02:47:27.987Z,1028.57
2019-02-05T02:48:27.615Z,1028.56
2019-02-05T02:49:27.619Z,1028.55
2019-02-05T02:50:28.045Z,1028.49
2019-02-05T02:51:28.308Z,1028.42
2019-02-05T02:52:27.718Z,1028.41
2019-02-05T02:53:28.273Z,1028.35
2019-02-05T02:54:27.630Z,1028.4
2019-02-05T02:55:27.679Z,1028.42
2019-02-05T02:56:27.688Z,1028.42
2019-02-05T02:57:28.713Z,1028.44
2019-02-05T02:58:27.998Z,1028.43
2019-02-05T02:59:28.403Z,1028.42
2019-02-05T03:00:28.018Z,1028.41
2019-02-05T03:01:27.661Z,1028.44
2019-02-05T03:02:28.022Z,1028.46
2019-02-05T03:03:27.604Z,1028.47
2019-02-05T03:04:28.042Z,1028.49
2019-02-05T03:05:28.248Z,1028.49
2019-02-05T03:06:29.650Z,1028.49
2019-02-05T03:07:27.632Z,1028.46
2019-02-05T03:08:27.755Z,1028.5
2019-02-05T03:09:27.974Z,1028.48
2019-02-05T03:10:27.884Z,1028.47
2019-02-05T03:11:27.597Z,1028.46
2019-02-05T03:12:27.677Z,1028.42
2019-02-05T03:13:27.819Z,1028.43
2019-02-05T03:14:27.663Z,1028.4
2019-02-05T03:15:27.801Z,1028.47
2019-02-05T03:16:27.590Z,1028.51
2019-02-05T03:17:27.593Z,1028.53
2019-02-05T03:18:27.827Z,1028.52
2019-02-05T03:19:27.603Z,1028.53
2019-02-05T03:20:27.827Z,1028.57
2019-02-05T03:21:27.607Z,1028.55
2019-02-05T03:22:27.749Z,1028.53
2019-02-05T03:23:27.856Z,1028.48
2019-02-05T03:24:27.646Z,1028.48
2019-02-05T03:25:27.637Z,1028.51
2019-02-05T03:26:27.617Z,1028.49
2019-02-05T03:27:27.636Z,1028.55
2019-02-05T03:28:27.778Z,1028.55
2019-02-05T03:29:27.686Z,1028.56
2019-02-05T03:30:27.616Z,1028.59
2019-02-05T03:31:27.811Z,1028.54
2019-02-05T03:32:27.602Z,1028.58
2019-02-05T03:33:27.679Z,1028.56
2019-02-05T03:34:27.545Z,1028.62
2019-02-05T03:35:27.982Z,1028.68
2019-02-05T03:36:27.622Z,1028.66
2019-02-05T03:37:27.565Z,1028.66
2019-02-05T03:38:27.600Z,1028.69
2019-02-05T03:39:27.547Z,1028.67
2019-02-05T03:40:27.556Z,1028.69
2019-02-05T03:41:28.192Z,1028.69
2019-02-05T03:42:27.929Z,1028.67
2019-02-05T03:43:27.666Z,1028.67
2019-02-05T03:44:27.827Z,1028.71
2019-02-05T03:45:28.226Z,1028.69
2019-02-05T03:46:27.797Z,1028.67
2019-02-05T03:47:27.616Z,1028.68
2019-02-05T03:48:27.813Z,1028.68
2019-02-05T03:49:27.683Z,1028.63
2019-02-05T03:50:27.617Z,1028.63
2019-02-05T03:51:28.221Z,1028.62
2019-02-05T03:52:27.663Z,1028.68
2019-02-05T03:53:27.851Z,1028.72
2019-02-05T03:54:28.166Z,1028.69
2019-02-05T03:55:27.858Z,1028.67
2019-02-05T03:56:27.971Z,1028.58
2019-02-05T03:57:32.533Z,1028.54
2019-02-05T03:58:27.563Z,1028.54
2019-02-05T03:59:27.532Z,1028.59
2019-02-05T04:00:29.378Z,1028.6
2019-02-05T04:01:27.682Z,1028.51
2019-02-05T04:02:27.574Z,1028.52
2019-02-05T04:03:27.814Z,1028.55
2019-02-05T04:04:27.522Z,1028.61
2019-02-05T04:05:28.683Z,1028.65
2019-02-05T04:06:27.525Z,1028.64
2019-02-05T04:07:27.739Z,1028.63
2019-02-05T04:08:27.740Z,1028.62
2019-02-05T04:09:27.781Z,1028.55
2019-02-05T04:10:27.851Z,1028.59
2019-02-05T04:11:27.481Z,1028.64
2019-02-05T04:12:29.368Z,1028.66
2019-02-05T04:13:28.183Z,1028.65
2019-02-05T04:14:27.721Z,1028.69
2019-02-05T04:15:27.689Z,1028.7
2019-02-05T04:16:27.558Z,1028.71
2019-02-05T04:17:27.547Z,1028.74
2019-02-05T04:18:27.482Z,1028.76
2019-02-05T04:19:27.497Z,1028.75
2019-02-05T04:20:27.971Z,1028.74
2019-02-05T04:21:27.767Z,1028.76
2019-02-05T04:22:27.671Z,1028.72
2019-02-05T04:23:27.677Z,1028.74
2019-02-05T04:24:27.529Z,1028.74
2019-02-05T04:25:27.521Z,1028.77
2019-02-05T04:26:27.548Z,1028.75
2019-02-05T04:27:27.636Z,1028.73
2019-02-05T04:28:28.434Z,1028.74
2019-02-05T04:29:27.487Z,1028.8
2019-02-05T04:30:27.524Z,1028.75
2019-02-05T04:31:27.482Z,1028.79
2019-02-05T04:32:27.551Z,1028.82
2019-02-05T04:33:27.646Z,1028.78
2019-02-05T04:34:28.382Z,1028.79
2019-02-05T04:35:27.868Z,1028.77
2019-02-05T04:36:28.515Z,1028.78
2019-02-05T04:37:28.471Z,1028.8
2019-02-05T04:38:27.602Z,1028.81
2019-02-05T04:39:27.524Z,1028.77
2019-02-05T04:40:27.639Z,1028.76
2019-02-05T04:41:27.665Z,1028.78
2019-02-05T04:42:27.508Z,1028.76
2019-02-05T04:43:28.126Z,1028.78
2019-02-05T04:44:27.572Z,1028.79
2019-02-05T04:45:34.528Z,1028.77
2019-02-05T04:46:27.484Z,1028.8
2019-02-05T04:47:27.542Z,1028.83
2019-02-05T04:48:27.586Z,1028.83
2019-02-05T04:49:27.728Z,1028.82
2019-02-05T04:50:27.643Z,1028.85
2019-02-05T04:51:27.972Z,1028.86
2019-02-05T04:52:27.536Z,1028.82
2019-02-05T04:53:27.479Z,1028.85
2019-02-05T04:54:27.580Z,1028.85
2019-02-05T04:55:27.578Z,1028.88
2019-02-05T04:56:27.644Z,1028.86
2019-02-05T04:57:27.649Z,1028.86
2019-02-05T04:58:27.689Z,1028.9
2019-02-05T04:59:27.431Z,1028.91
2019-02-05T05:00:27.671Z,1028.92
2019-02-05T05:01:27.680Z,1028.96
2019-02-05T05:02:27.488Z,1028.92
2019-02-05T05:03:27.493Z,1028.91
2019-02-05T05:04:27.511Z,1028.97
2019-02-05T05:05:27.451Z,1028.97
2019-02-05T05:06:27.782Z,1028.96
2019-02-05T05:07:27.426Z,1028.97
2019-02-05T05:08:27.724Z,1028.99
2019-02-05T05:09:27.441Z,1028.95
2019-02-05T05:10:27.436Z,1028.96
2019-02-05T05:11:27.444Z,1028.95
2019-02-05T05:12:27.517Z,1028.94
2019-02-05T05:13:27.528Z,1028.99
2019-02-05T05:14:32.549Z,1028.97
2019-02-05T05:15:27.670Z,1029.01
2019-02-05T05:16:27.439Z,1029.03
2019-02-05T05:17:27.464Z,1029.02
2019-02-05T05:18:27.431Z,1029.08
2019-02-05T05:19:27.420Z,1029.07
2019-02-05T05:20:27.379Z,1029.08
2019-02-05T05:21:27.759Z,1029.09
2019-02-05T05:22:27.425Z,1029.06
2019-02-05T05:23:27.514Z,1029.06
2019-02-05T05:24:27.477Z,1029.1
2019-02-05T05:25:27.549Z,1029.1
2019-02-05T05:26:27.562Z,1029.1
2019-02-05T05:27:27.249Z,1029.14
2019-02-05T05:28:27.809Z,1029.14
2019-02-05T05:29:27.762Z,1029.15
2019-02-05T05:30:27.667Z,1029.14
2019-02-05T05:31:27.695Z,1029.13
2019-02-05T05:32:27.593Z,1029.14
2019-02-05T05:33:27.892Z,1029.11
2019-02-05T05:34:27.513Z,1029.1
2019-02-05T05:35:44.292Z,1029.09
2019-02-05T05:36:27.962Z,1029.07
2019-02-05T05:37:27.499Z,1029.07
2019-02-05T05:38:28.141Z,1029.07
2019-02-05T05:39:27.621Z,1029.04
2019-02-05T05:40:27.641Z,1029.03
2019-02-05T05:41:28.455Z,1029.04
2019-02-05T05:42:27.377Z,1029.05
2019-02-05T05:43:27.702Z,1029.04
2019-02-05T05:44:27.675Z,1029.03
2019-02-05T05:45:27.399Z,1029.1
2019-02-05T05:46:27.376Z,1029.09
2019-02-05T05:47:27.620Z,1029.11
2019-02-05T05:48:27.433Z,1029.17
2019-02-05T05:49:28.110Z,1029.13
2019-02-05T05:50:27.498Z,1029.17
2019-02-05T05:51:28.164Z,1029.15
2019-02-05T05:52:27.399Z,1029.18
2019-02-05T05:53:27.484Z,1029.24
2019-02-05T05:54:28.134Z,1029.26
2019-02-05T05:55:27.403Z,1029.24
2019-02-05T05:56:27.630Z,1029.27
2019-02-05T05:57:27.471Z,1029.25
2019-02-05T05:58:27.595Z,1029.25
2019-02-05T05:59:27.655Z,1029.21
2019-02-05T06:00:27.376Z,1029.24
2019-02-05T06:01:27.334Z,1029.26
2019-02-05T06:02:27.671Z,1029.25
2019-02-05T06:03:28.311Z,1029.26
2019-02-05T06:04:27.582Z,1029.24
2019-02-05T06:05:27.504Z,1029.23
2019-02-05T06:06:27.500Z,1029.21
2019-02-05T06:07:27.458Z,1029.2
2019-02-05T06:08:27.628Z,1029.2
2019-02-05T06:09:27.349Z,1029.19
2019-02-05T06:10:27.479Z,1029.19
2019-02-05T06:11:27.377Z,1029.16
2019-02-05T06:12:28.265Z,1029.2
2019-02-05T06:13:27.796Z,1029.22
2019-02-05T06:14:27.959Z,1029.23
2019-02-05T06:15:27.486Z,1029.22
2019-02-05T06:16:27.790Z,1029.2
2019-02-05T06:17:27.595Z,1029.2
2019-02-05T06:18:28.520Z,1029.17
2019-02-05T06:19:27.378Z,1029.18
2019-02-05T06:20:27.550Z,1029.2
2019-02-05T06:21:27.805Z,1029.18
2019-02-05T06:22:27.440Z,1029.16
2019-02-05T06:23:27.608Z,1029.2
2019-02-05T06:24:27.552Z,1029.21
2019-02-05T06:25:27.382Z,1029.23
2019-02-05T06:26:27.675Z,1029.25
2019-02-05T06:27:27.323Z,1029.28
2019-02-05T06:28:34.984Z,1029.36
2019-02-05T06:29:28.125Z,1029.37
2019-02-05T06:30:27.467Z,1029.41
2019-02-05T06:31:27.377Z,1029.44
2019-02-05T06:32:27.297Z,1029.48
2019-02-05T06:33:27.373Z,1029.49
2019-02-05T06:34:27.362Z,1029.49
2019-02-05T06:35:27.449Z,1029.45
2019-02-05T06:36:27.345Z,1029.41
2019-02-05T06:37:27.463Z,1029.39
2019-02-05T06:38:27.312Z,1029.39
2019-02-05T06:39:27.490Z,1029.4
2019-02-05T06:40:27.500Z,1029.41
2019-02-05T06:41:27.445Z,1029.43
2019-02-05T06:42:27.465Z,1029.5
2019-02-05T06:43:27.501Z,1029.61
2019-02-05T06:44:27.290Z,1029.64
2019-02-05T06:45:27.360Z,1029.65
2019-02-05T06:46:27.294Z,1029.69
2019-02-05T06:47:27.311Z,1029.66
2019-02-05T06:48:27.286Z,1029.67
2019-02-05T06:49:27.311Z,1029.63
2019-02-05T06:50:27.520Z,1029.69
2019-02-05T06:51:27.341Z,1029.68
2019-02-05T06:52:27.367Z,1029.67
2019-02-05T06:53:27.280Z,1029.72
2019-02-05T06:54:27.605Z,1029.69
2019-02-05T06:55:27.298Z,1029.68
2019-02-05T06:56:27.302Z,1029.69
2019-02-05T06:57:27.276Z,1029.72
2019-02-05T06:58:27.682Z,1029.7
2019-02-05T06:59:27.366Z,1029.74
2019-02-05T07:00:27.299Z,1029.71
2019-02-05T07:01:27.268Z,1029.75
2019-02-05T07:02:27.342Z,1029.75
2019-02-05T07:03:27.449Z,1029.76
2019-02-05T07:04:29.110Z,1029.78
2019-02-05T07:05:27.565Z,1029.76
2019-02-05T07:06:27.274Z,1029.78
2019-02-05T07:07:27.259Z,1029.73
2019-02-05T07:08:27.490Z,1029.8
2019-02-05T07:09:27.504Z,1029.84
2019-02-05T07:10:27.539Z,1029.81
2019-02-05T07:11:27.511Z,1029.85
2019-02-05T07:12:27.334Z,1029.85
2019-02-05T07:13:28.134Z,1029.87
2019-02-05T07:14:27.475Z,1029.88
2019-02-05T07:15:27.347Z,1029.88
2019-02-05T07:16:27.410Z,1029.89
2019-02-05T07:17:27.253Z,1029.88
2019-02-05T07:18:27.664Z,1029.9
2019-02-05T07:19:27.472Z,1029.86
2019-02-05T07:20:27.727Z,1029.9
2019-02-05T07:21:27.301Z,1029.93
2019-02-05T07:22:27.570Z,1029.97
2019-02-05T07:23:27.450Z,1030.03
2019-02-05T07:24:27.400Z,1029.99
2019-02-05T07:25:27.355Z,1029.99
2019-02-05T07:26:27.213Z,1029.97
2019-02-05T07:27:27.364Z,1030.01
2019-02-05T07:28:27.531Z,1029.95
2019-02-05T07:29:27.219Z,1029.95
2019-02-05T07:30:27.412Z,1029.93
2019-02-05T07:31:27.467Z,1029.92
2019-02-05T07:32:29.093Z,1029.91
2019-02-05T07:33:27.354Z,1029.92
2019-02-05T07:34:27.386Z,1029.94
2019-02-05T07:35:27.618Z,1029.92
2019-02-05T07:36:27.593Z,1029.9
2019-02-05T07:37:27.281Z,1029.9
2019-02-05T07:38:27.491Z,1029.89
2019-02-05T07:39:27.851Z,1029.91
2019-02-05T07:40:27.382Z,1029.94
2019-02-05T07:41:27.316Z,1029.96
2019-02-05T07:42:27.664Z,1029.94
2019-02-05T07:43:27.428Z,1029.99
2019-02-05T07:44:27.398Z,1029.99
2019-02-05T07:45:27.559Z,1029.95
2019-02-05T07:46:27.343Z,1029.99
2019-02-05T07:47:27.394Z,1030.01
2019-02-05T07:48:30.766Z,1030.03
2019-02-05T07:49:27.714Z,1030.01
2019-02-05T07:50:27.583Z,1030.03
2019-02-05T07:51:27.325Z,1030.02
2019-02-05T07:52:27.383Z,1030.02
2019-02-05T07:53:27.286Z,1030.07
2019-02-05T07:54:27.803Z,1030.05
2019-02-05T07:55:27.382Z,1030.06
2019-02-05T07:56:27.774Z,1030.03
2019-02-05T07:57:27.151Z,1030
2019-02-05T07:58:27.166Z,1030.03
2019-02-05T07:59:27.432Z,1030.01
2019-02-05T08:00:27.167Z,1030.02
2019-02-05T08:01:27.479Z,1030
2019-02-05T08:02:29.024Z,1030.02
2019-02-05T08:03:27.537Z,1030.05
2019-02-05T08:04:27.675Z,1030.02
2019-02-05T08:05:27.387Z,1030.04
2019-02-05T08:06:27.393Z,1030.08
2019-02-05T08:07:27.234Z,1030.04
2019-02-05T08:08:27.159Z,1030.1
2019-02-05T08:09:27.355Z,1030.1
2019-02-05T08:10:27.246Z,1030.11
2019-02-05T08:11:27.342Z,1030.15
2019-02-05T08:12:27.163Z,1030.14
2019-02-05T08:13:27.220Z,1030.15
2019-02-05T08:14:27.394Z,1030.16
2019-02-05T08:15:27.144Z,1030.17
2019-02-05T08:16:27.224Z,1030.24
2019-02-05T08:17:27.446Z,1030.19
2019-02-05T08:18:27.211Z,1030.24
2019-02-05T08:19:27.124Z,1030.2
2019-02-05T08:20:27.404Z,1030.16
2019-02-05T08:21:29.009Z,1030.22
2019-02-05T08:22:27.175Z,1030.18
2019-02-05T08:23:27.119Z,1030.17
2019-02-05T08:24:27.427Z,1030.18
2019-02-05T08:25:27.237Z,1030.22
2019-02-05T08:26:27.171Z,1030.22
2019-02-05T08:27:27.261Z,1030.18
2019-02-05T08:28:27.131Z,1030.21
2019-02-05T08:29:27.111Z,1030.18
2019-02-05T08:30:27.118Z,1030.23
2019-02-05T08:31:27.247Z,1030.22
2019-02-05T08:32:27.684Z,1030.21
2019-02-05T08:33:27.115Z,1030.23
2019-02-05T08:34:27.121Z,1030.22
2019-02-05T08:35:27.129Z,1030.23
2019-02-05T08:36:27.180Z,1030.25
2019-02-05T08:37:27.369Z,1030.24
2019-02-05T08:38:27.144Z,1030.27
2019-02-05T08:39:27.527Z,1030.27
2019-02-05T08:40:27.101Z,1030.3
2019-02-05T08:41:27.155Z,1030.3
2019-02-05T08:42:27.238Z,1030.31
2019-02-05T08:43:27.097Z,1030.31
2019-02-05T08:44:27.105Z,1030.31
2019-02-05T08:45:27.102Z,1030.3
2019-02-05T08:46:27.436Z,1030.32
2019-02-05T08:47:27.111Z,1030.35
2019-02-05T08:48:27.542Z,1030.33
2019-02-05T08:49:27.133Z,1030.33
2019-02-05T08:50:27.926Z,1030.34
2019-02-05T08:51:27.135Z,1030.39
2019-02-05T08:52:27.090Z,1030.36
2019-02-05T08:53:27.374Z,1030.41
2019-02-05T08:54:27.522Z,1030.42
2019-02-05T08:55:27.228Z,1030.44
2019-02-05T08:56:27.265Z,1030.4
2019-02-05T08:57:27.088Z,1030.43
2019-02-05T08:58:31.492Z,1030.43
2019-02-05T08:59:28.055Z,1030.43
2019-02-05T09:00:27.191Z,1030.43
2019-02-05T09:01:27.883Z,1030.43
2019-02-05T09:02:27.332Z,1030.45
2019-02-05T09:03:27.188Z,1030.49
2019-02-05T09:04:27.263Z,1030.45
2019-02-05T09:05:27.238Z,1030.47
2019-02-05T09:06:27.244Z,1030.46
2019-02-05T09:07:27.583Z,1030.51
2019-02-05T09:08:27.384Z,1030.46
2019-02-05T09:09:28.912Z,1030.45
2019-02-05T09:10:27.300Z,1030.43
2019-02-05T09:11:27.111Z,1030.47
2019-02-05T09:12:27.131Z,1030.5
2019-02-05T09:13:27.060Z,1030.5
2019-02-05T09:14:27.120Z,1030.54
2019-02-05T09:15:29.923Z,1030.53
2019-02-05T09:16:27.462Z,1030.5
2019-02-05T09:17:27.098Z,1030.5
2019-02-05T09:18:27.251Z,1030.49
2019-02-05T09:19:27.440Z,1030.54
2019-02-05T09:20:27.144Z,1030.51
2019-02-05T09:21:27.356Z,1030.48
2019-02-05T09:22:27.259Z,1030.49
2019-02-05T09:23:27.711Z,1030.5
2019-02-05T09:24:27.270Z,1030.49
2019-02-05T09:25:27.089Z,1030.46
2019-02-05T09:26:28.296Z,1030.44
2019-02-05T09:27:27.074Z,1030.4
2019-02-05T09:28:27.213Z,1030.43
2019-02-05T09:29:33.793Z,1030.4
2019-02-05T09:30:27.083Z,1030.45
2019-02-05T09:31:27.035Z,1030.47
2019-02-05T09:32:27.034Z,1030.45
2019-02-05T09:33:27.072Z,1030.47
2019-02-05T09:34:27.070Z,1030.45
2019-02-05T09:35:27.102Z,1030.48
2019-02-05T09:36:27.445Z,1030.49
2019-02-05T09:37:27.574Z,1030.46
2019-02-05T09:38:27.709Z,1030.47
2019-02-05T09:39:27.003Z,1030.48
2019-02-05T09:40:27.234Z,1030.43
2019-02-05T09:41:27.582Z,1030.46
2019-02-05T09:42:27.213Z,1030.43
2019-02-05T09:43:27.287Z,1030.41
2019-02-05T09:44:26.996Z,1030.38
2019-02-05T09:45:27.305Z,1030.39
2019-02-05T09:46:27.035Z,1030.37
2019-02-05T09:47:27.152Z,1030.38
2019-02-05T09:48:27.191Z,1030.38
2019-02-05T09:49:27.249Z,1030.36
2019-02-05T09:50:27.091Z,1030.37
2019-02-05T09:51:27.335Z,1030.38
2019-02-05T09:52:27.165Z,1030.41
2019-02-05T09:53:27.256Z,1030.4
2019-02-05T09:54:27.250Z,1030.41
2019-02-05T09:55:27.271Z,1030.4
2019-02-05T09:56:27.159Z,1030.43
2019-02-05T09:57:27.092Z,1030.43
2019-02-05T09:58:27.033Z,1030.45
2019-02-05T09:59:27.145Z,1030.42
2019-02-05T10:00:29.083Z,1030.39
2019-02-05T10:01:28.026Z,1030.38
2019-02-05T10:02:27.047Z,1030.4
2019-02-05T10:03:27.013Z,1030.4
2019-02-05T10:04:27.007Z,1030.37
2019-02-05T10:05:26.984Z,1030.41
2019-02-05T10:06:26.989Z,1030.42
2019-02-05T10:07:27.219Z,1030.49
2019-02-05T10:08:27.000Z,1030.44
2019-02-05T10:09:27.055Z,1030.54
2019-02-05T10:10:27.029Z,1030.52
2019-02-05T10:11:27.004Z,1030.56
2019-02-05T10:12:26.987Z,1030.64
2019-02-05T10:13:27.023Z,1030.64
2019-02-05T10:14:26.995Z,1030.65
2019-02-05T10:15:27.107Z,1030.69
2019-02-05T10:16:27.018Z,1030.69
2019-02-05T10:17:27.028Z,1030.68
2019-02-05T10:18:26.959Z,1030.71
2019-02-05T10:19:27.005Z,1030.69
2019-02-05T10:20:27.010Z,1030.71
2019-02-05T10:21:27.089Z,1030.74
2019-02-05T10:22:27.386Z,1030.72
2019-02-05T10:23:27.022Z,1030.77
2019-02-05T10:24:27.144Z,1030.79
2019-02-05T10:25:26.983Z,1030.75
2019-02-05T10:26:27.147Z,1030.73
2019-02-05T10:27:26.960Z,1030.76
2019-02-05T10:28:27.076Z,1030.75
2019-02-05T10:29:27.085Z,1030.78
2019-02-05T10:30:27.180Z,1030.81
2019-02-05T10:31:26.982Z,1030.85
2019-02-05T10:32:26.975Z,1030.86
2019-02-05T10:33:26.976Z,1030.82
2019-02-05T10:34:34.499Z,1030.83
2019-02-05T10:35:27.121Z,1030.83
2019-02-05T10:36:27.219Z,1030.79
2019-02-05T10:37:27.222Z,1030.81
2019-02-05T10:38:27.283Z,1030.75
2019-02-05T10:39:27.088Z,1030.77
2019-02-05T10:40:27.120Z,1030.75
2019-02-05T10:41:27.172Z,1030.75
2019-02-05T10:42:26.920Z,1030.76
2019-02-05T10:43:27.166Z,1030.75
2019-02-05T10:44:27.154Z,1030.77
2019-02-05T10:45:27.589Z,1030.75
2019-02-05T10:46:27.515Z,1030.79
2019-02-05T10:47:28.629Z,1030.74
2019-02-05T10:48:27.624Z,1030.75
2019-02-05T10:49:26.938Z,1030.77
2019-02-05T10:50:27.025Z,1030.75
2019-02-05T10:51:28.784Z,1030.76
2019-02-05T10:52:27.111Z,1030.77
2019-02-05T10:53:27.358Z,1030.78
2019-02-05T10:54:27.135Z,1030.78
2019-02-05T10:55:26.933Z,1030.81
2019-02-05T10:56:27.035Z,1030.8
2019-02-05T10:57:27.685Z,1030.76
2019-02-05T10:58:27.008Z,1030.75
2019-02-05T10:59:27.320Z,1030.73
2019-02-05T11:00:27.502Z,1030.73
2019-02-05T11:01:27.045Z,1030.69
2019-02-05T11:02:27.095Z,1030.65
2019-02-05T11:03:28.134Z,1030.64
2019-02-05T11:04:26.943Z,1030.66
2019-02-05T11:05:26.879Z,1030.63
2019-02-05T11:06:28.826Z,1030.64
2019-02-05T11:07:27.132Z,1030.61
2019-02-05T11:08:27.240Z,1030.64
2019-02-05T11:09:27.263Z,1030.61
2019-02-05T11:10:27.021Z,1030.61
2019-02-05T11:11:27.371Z,1030.6
2019-02-05T11:12:26.882Z,1030.56
2019-02-05T11:13:27.001Z,1030.56
2019-02-05T11:14:28.996Z,1030.54
2019-02-05T11:15:27.295Z,1030.51
2019-02-05T11:16:26.720Z,1030.49
2019-02-05T11:17:27.097Z,1030.41
2019-02-05T11:18:27.022Z,1030.44
2019-02-05T11:19:26.857Z,1030.4
2019-02-05T11:20:27.005Z,1030.37
2019-02-05T11:21:27.773Z,1030.37
2019-02-05T11:22:38.899Z,1030.35
2019-02-05T11:23:27.233Z,1030.36
2019-02-05T11:24:26.887Z,1030.37
2019-02-05T11:25:27.145Z,1030.34
2019-02-05T11:26:26.846Z,1030.34
2019-02-05T11:27:27.479Z,1030.33
2019-02-05T11:28:27.232Z,1030.3
2019-02-05T11:29:27.260Z,1030.34
2019-02-05T11:30:27.181Z,1030.34
2019-02-05T11:31:27.000Z,1030.36
2019-02-05T11:32:27.018Z,1030.36
2019-02-05T11:33:26.941Z,1030.34
2019-02-05T11:34:26.955Z,1030.27
2019-02-05T11:35:28.718Z,1030.28
2019-02-05T11:36:26.834Z,1030.24
2019-02-05T11:37:27.006Z,1030.22
2019-02-05T11:38:26.959Z,1030.23
2019-02-05T11:39:26.912Z,1030.21
2019-02-05T11:40:27.056Z,1030.2
2019-02-05T11:41:27.020Z,1030.22
2019-02-05T11:42:26.829Z,1030.22
2019-02-05T11:43:27.305Z,1030.22
2019-02-05T11:44:27.054Z,1030.24
2019-02-05T11:45:27.168Z,1030.25
2019-02-05T11:46:27.085Z,1030.25
2019-02-05T11:47:26.840Z,1030.25
2019-02-05T11:48:27.091Z,1030.23
2019-02-05T11:49:26.830Z,1030.22
2019-02-05T11:50:27.269Z,1030.25
2019-02-05T11:51:27.116Z,1030.23
2019-02-05T11:52:27.342Z,1030.19
2019-02-05T11:53:27.629Z,1030.18
2019-02-05T11:54:26.834Z,1030.16
2019-02-05T11:55:27.149Z,1030.18
2019-02-05T11:56:27.165Z,1030.15
2019-02-05T11:57:27.151Z,1030.12
2019-02-05T11:58:27.025Z,1030.1
2019-02-05T11:59:27.310Z,1030.1
2019-02-05T12:00:33.179Z,1030.09
2019-02-05T12:01:39.305Z,1030.09
2019-02-05T12:02:27.084Z,1030.04
2019-02-05T12:03:27.295Z,1030.08
2019-02-05T12:04:27.039Z,1030.02
2019-02-05T12:05:27.759Z,1030.04
2019-02-05T12:06:27.112Z,1030.01
2019-02-05T12:07:27.126Z,1030.02
2019-02-05T12:08:27.250Z,1029.98